createdAt,value
2019-03-31T00:00:24.310Z,0
2019-03-31T00:01:24.879Z,0
2019-03-31T00:02:25.449Z,0
2019-03-31T00:03:26.018Z,0
2019-03-31T00:04:26.588Z,0
2019-03-31T00:05:27.157Z,0
2019-03-31T00:06:27.739Z,0
2019-03-31T00:07:28.309Z,0
2019-03-31T00:08:28.878Z,0
2019-03-31T00:09:29.449Z,0
2019-03-31T00:10:30.023Z,0
2019-03-31T00:11:30.599Z,0
2019-03-31T00:12:31.171Z,0
2019-03-31T00:13:31.742Z,0
2019-03-31T00:14:32.321Z,0
2019-03-31T00:15:32.890Z,0
2019-03-31T00:16:33.459Z,0
2019-03-31T00:17:34.031Z,0
2019-03-31T00:18:34.600Z,0
2019-03-31T00:19:35.181Z,0
2019-03-31T00:20:35.764Z,0
2019-03-31T00:21:36.333Z,0
2019-03-31T00:22:36.903Z,0
2019-03-31T00:23:37.472Z,0
2019-03-31T00:24:38.043Z,0
2019-03-31T00:25:38.612Z,0
2019-03-31T00:26:39.195Z,0
2019-03-31T00:27:39.776Z,0
2019-03-31T00:28:40.346Z,0
2019-03-31T00:29:40.920Z,0
2019-03-31T00:30:41.498Z,0
2019-03-31T00:31:42.067Z,0
2019-03-31T00:32:42.638Z,0
2019-03-31T00:33:43.205Z,0
2019-03-31T00:34:43.774Z,0
2019-03-31T00:35:44.346Z,0
2019-03-31T00:36:44.913Z,0
2019-03-31T00:37:45.494Z,0
2019-03-31T00:38:46.063Z,0
2019-03-31T00:39:46.633Z,0
2019-03-31T00:40:47.202Z,0
2019-03-31T00:41:47.772Z,0
2019-03-31T00:42:48.340Z,0
2019-03-31T00:43:48.911Z,0
2019-03-31T00:44:49.560Z,0
2019-03-31T00:45:50.061Z,0
2019-03-31T00:46:50.641Z,0
2019-03-31T00:47:51.210Z,0
2019-03-31T00:48:51.779Z,0
2019-03-31T00:49:52.348Z,0
2019-03-31T00:50:52.916Z,0
2019-03-31T00:51:53.499Z,0
2019-03-31T00:52:54.065Z,0
2019-03-31T00:53:54.636Z,0
2019-03-31T00:54:55.207Z,0
2019-03-31T00:55:55.773Z,0
2019-03-31T00:56:56.345Z,0
2019-03-31T00:57:56.913Z,0
2019-03-31T00:58:57.496Z,0
2019-03-31T00:59:58.081Z,0
2019-03-31T01:00:58.648Z,0
2019-03-31T01:01:59.219Z,0
2019-03-31T01:02:59.788Z,0
2019-03-31T01:04:00.359Z,0
2019-03-31T01:05:00.928Z,0
2019-03-31T01:06:01.501Z,0
2019-03-31T01:07:02.068Z,0
2019-03-31T01:08:02.637Z,0
2019-03-31T01:09:03.210Z,0
2019-03-31T01:10:03.790Z,0
2019-03-31T01:11:04.360Z,0
2019-03-31T01:12:04.928Z,0
2019-03-31T01:13:05.498Z,0
2019-03-31T01:14:06.067Z,0
2019-03-31T01:15:06.637Z,0
2019-03-31T01:16:07.205Z,0
2019-03-31T01:17:07.775Z,0
2019-03-31T01:18:08.346Z,0
2019-03-31T01:19:08.914Z,0
2019-03-31T01:20:09.482Z,0
2019-03-31T01:21:10.062Z,0
2019-03-31T01:22:10.634Z,0
2019-03-31T01:23:11.202Z,0
2019-03-31T01:24:11.774Z,0
2019-03-31T01:25:12.341Z,0
2019-03-31T01:26:12.912Z,0
2019-03-31T01:27:13.493Z,0
2019-03-31T01:28:14.062Z,0
2019-03-31T01:29:14.634Z,0
2019-03-31T01:30:15.203Z,0
2019-03-31T01:31:15.775Z,0
2019-03-31T01:32:16.343Z,0
2019-03-31T01:33:16.911Z,0
2019-03-31T01:34:17.480Z,0
2019-03-31T01:35:18.048Z,0
2019-03-31T01:36:18.630Z,0
2019-03-31T01:37:20.351Z,0
2019-03-31T01:38:20.767Z,0
2019-03-31T01:39:21.334Z,0
2019-03-31T01:40:21.907Z,0
2019-03-31T01:41:22.475Z,0
2019-03-31T01:42:23.044Z,0
2019-03-31T01:43:23.615Z,0
2019-03-31T01:44:24.183Z,0
2019-03-31T01:45:24.753Z,0
2019-03-31T01:46:25.321Z,0
2019-03-31T01:47:25.902Z,0
2019-03-31T01:48:26.474Z,0
2019-03-31T01:49:27.043Z,0
2019-03-31T01:50:27.613Z,0
2019-03-31T01:51:28.182Z,0
2019-03-31T01:52:28.753Z,0
2019-03-31T01:53:29.321Z,0
2019-03-31T01:54:29.891Z,0
2019-03-31T01:55:30.472Z,0
2019-03-31T01:56:31.043Z,0
2019-03-31T01:57:31.627Z,0
2019-03-31T01:58:32.197Z,0
2019-03-31T01:59:32.766Z,0
2019-03-31T02:00:33.336Z,0
2019-03-31T02:01:33.905Z,0
2019-03-31T02:02:34.478Z,0
2019-03-31T02:03:35.044Z,0
2019-03-31T02:04:35.613Z,0
2019-03-31T02:05:36.182Z,0
2019-03-31T02:06:36.752Z,0
2019-03-31T02:07:37.320Z,0
2019-03-31T02:08:37.901Z,0
2019-03-31T02:09:38.471Z,0
2019-03-31T02:10:39.039Z,0
2019-03-31T02:11:39.609Z,0
2019-03-31T02:12:40.178Z,0
2019-03-31T02:13:40.749Z,0
2019-03-31T02:14:41.316Z,0
2019-03-31T02:15:41.890Z,0
2019-03-31T02:16:42.467Z,0
2019-03-31T02:17:43.040Z,0
2019-03-31T02:18:43.605Z,0
2019-03-31T02:19:44.176Z,0
2019-03-31T02:20:44.743Z,0
2019-03-31T02:21:45.310Z,0
2019-03-31T02:22:45.880Z,0
2019-03-31T02:23:46.448Z,0
2019-03-31T02:24:47.017Z,0
2019-03-31T02:25:47.586Z,0
2019-03-31T02:26:48.156Z,0
2019-03-31T02:27:48.724Z,0
2019-03-31T02:28:49.292Z,0
2019-03-31T02:29:49.861Z,0
2019-03-31T02:30:50.430Z,0
2019-03-31T02:31:50.998Z,0
2019-03-31T02:32:51.568Z,0
2019-03-31T02:33:52.134Z,0
2019-03-31T02:34:52.701Z,0
2019-03-31T02:35:53.269Z,0
2019-03-31T02:36:53.850Z,0
2019-03-31T02:37:54.421Z,0
2019-03-31T02:38:54.993Z,0
2019-03-31T02:39:55.556Z,0
2019-03-31T02:40:56.150Z,0
2019-03-31T02:41:56.705Z,0
2019-03-31T02:42:57.274Z,0
2019-03-31T02:43:57.847Z,0
2019-03-31T02:44:58.417Z,0
2019-03-31T02:45:58.995Z,0
2019-03-31T02:46:59.563Z,0
2019-03-31T02:48:00.137Z,0
2019-03-31T02:49:00.702Z,0
2019-03-31T02:50:01.273Z,0
2019-03-31T02:51:01.842Z,0
2019-03-31T02:52:02.412Z,0
2019-03-31T02:53:02.979Z,0
2019-03-31T02:54:03.558Z,0
2019-03-31T02:55:04.126Z,0
2019-03-31T02:56:04.705Z,0
2019-03-31T02:57:05.275Z,0
2019-03-31T02:58:05.841Z,0
2019-03-31T02:59:06.422Z,0
2019-03-31T03:00:06.992Z,0
2019-03-31T03:01:07.573Z,0
2019-03-31T03:02:08.132Z,0
2019-03-31T03:03:08.714Z,0
2019-03-31T03:04:09.278Z,0
2019-03-31T03:05:19.778Z,0
2019-03-31T03:06:11.289Z,0
2019-03-31T03:07:11.860Z,0
2019-03-31T03:08:12.428Z,0
2019-03-31T03:09:13.007Z,0
2019-03-31T03:10:13.575Z,0
2019-03-31T03:11:14.148Z,0
2019-03-31T03:12:14.714Z,0
2019-03-31T03:13:15.324Z,0
2019-03-31T03:14:15.847Z,0
2019-03-31T03:15:16.414Z,0
2019-03-31T03:16:16.986Z,0
2019-03-31T03:17:17.566Z,0
2019-03-31T03:18:18.130Z,0
2019-03-31T03:19:18.699Z,0
2019-03-31T03:20:19.268Z,0
2019-03-31T03:21:23.705Z,0
2019-03-31T03:22:20.483Z,0
2019-03-31T03:23:20.982Z,0
2019-03-31T03:24:21.551Z,0
2019-03-31T03:25:22.120Z,0
2019-03-31T03:26:22.689Z,0
2019-03-31T03:27:23.259Z,0
2019-03-31T03:28:23.829Z,0
2019-03-31T03:29:24.396Z,0
2019-03-31T03:30:25.061Z,0
2019-03-31T03:31:25.616Z,0
2019-03-31T03:32:26.198Z,0
2019-03-31T03:33:26.766Z,0
2019-03-31T03:34:27.350Z,0
2019-03-31T03:35:27.913Z,0
2019-03-31T03:36:28.485Z,0
2019-03-31T03:37:29.066Z,0
2019-03-31T03:38:29.631Z,0
2019-03-31T03:39:30.266Z,0
2019-03-31T03:40:30.780Z,0
2019-03-31T03:41:31.359Z,0
2019-03-31T03:42:31.925Z,0
2019-03-31T03:43:32.496Z,0
2019-03-31T03:44:33.062Z,0
2019-03-31T03:45:33.631Z,0
2019-03-31T03:46:34.200Z,0
2019-03-31T03:47:34.768Z,0
2019-03-31T03:48:35.333Z,0
2019-03-31T03:49:35.902Z,0
2019-03-31T03:50:36.470Z,0
2019-03-31T03:51:37.040Z,0
2019-03-31T03:52:37.604Z,0
2019-03-31T03:53:38.172Z,0
2019-03-31T03:54:38.740Z,0
2019-03-31T03:55:39.307Z,0
2019-03-31T03:56:39.874Z,0
2019-03-31T03:57:40.443Z,0
2019-03-31T03:58:41.009Z,0
2019-03-31T03:59:41.578Z,0
2019-03-31T04:00:42.240Z,0
2019-03-31T04:01:42.757Z,0
2019-03-31T04:02:43.337Z,0
2019-03-31T04:03:43.890Z,0
2019-03-31T04:04:44.470Z,0
2019-03-31T04:05:45.037Z,0
2019-03-31T04:06:45.607Z,0
2019-03-31T04:07:46.174Z,0
2019-03-31T04:08:46.755Z,0
2019-03-31T04:09:47.324Z,0
2019-03-31T04:10:47.890Z,0
2019-03-31T04:11:48.474Z,0
2019-03-31T04:12:49.027Z,0
2019-03-31T04:13:49.597Z,0
2019-03-31T04:14:50.163Z,0
2019-03-31T04:15:50.732Z,0
2019-03-31T04:16:51.308Z,0
2019-03-31T04:17:51.872Z,0
2019-03-31T04:18:52.448Z,0
2019-03-31T04:19:53.016Z,0
2019-03-31T04:20:53.631Z,0
2019-03-31T04:21:54.153Z,0
2019-03-31T04:22:54.721Z,0
2019-03-31T04:23:55.288Z,0
2019-03-31T04:24:55.903Z,0
2019-03-31T04:25:56.447Z,0
2019-03-31T04:26:57.015Z,0
2019-03-31T04:27:57.585Z,0
2019-03-31T04:28:58.152Z,0
2019-03-31T04:29:58.719Z,0
2019-03-31T04:30:59.287Z,0
2019-03-31T04:31:59.863Z,0
2019-03-31T04:33:00.434Z,0
2019-03-31T04:34:01.010Z,0
2019-03-31T04:35:01.571Z,0
2019-03-31T04:36:02.138Z,0
2019-03-31T04:37:02.708Z,0
2019-03-31T04:38:03.274Z,0
2019-03-31T04:39:03.843Z,0
2019-03-31T04:40:04.412Z,0
2019-03-31T04:41:04.991Z,0
2019-03-31T04:42:05.564Z,0
2019-03-31T04:43:06.229Z,0
2019-03-31T04:44:06.716Z,0
2019-03-31T04:45:07.287Z,0
2019-03-31T04:46:07.867Z,0
2019-03-31T04:47:08.434Z,0
2019-03-31T04:48:09.004Z,0
2019-03-31T04:49:09.573Z,0
2019-03-31T04:50:10.141Z,0
2019-03-31T04:51:10.711Z,0
2019-03-31T04:52:11.277Z,0
2019-03-31T04:53:11.844Z,0
2019-03-31T04:54:12.426Z,0
2019-03-31T04:55:12.994Z,0
2019-03-31T04:56:13.561Z,0
2019-03-31T04:57:14.131Z,0
2019-03-31T04:58:14.699Z,0
2019-03-31T04:59:15.275Z,0
2019-03-31T05:00:15.845Z,0
2019-03-31T05:01:16.425Z,0
2019-03-31T05:02:16.993Z,0
2019-03-31T05:03:17.573Z,0
2019-03-31T05:04:18.139Z,0
2019-03-31T05:05:18.708Z,0
2019-03-31T05:06:19.276Z,0
2019-03-31T05:07:19.846Z,0
2019-03-31T05:08:20.412Z,0
2019-03-31T05:09:20.991Z,0
2019-03-31T05:10:21.560Z,0
2019-03-31T05:11:22.129Z,0
2019-03-31T05:12:22.697Z,0
2019-03-31T05:13:23.266Z,0
2019-03-31T05:14:23.834Z,0
2019-03-31T05:15:24.400Z,0
2019-03-31T05:16:24.969Z,0
2019-03-31T05:17:25.535Z,0
2019-03-31T05:18:26.198Z,0
2019-03-31T05:19:26.695Z,0
2019-03-31T05:20:27.262Z,0
2019-03-31T05:21:27.832Z,0
2019-03-31T05:22:28.397Z,0
2019-03-31T05:23:28.960Z,0
2019-03-31T05:24:29.529Z,0
2019-03-31T05:25:30.096Z,0
2019-03-31T05:26:30.664Z,0
2019-03-31T05:27:31.232Z,0
2019-03-31T05:28:31.802Z,0
2019-03-31T05:29:32.380Z,0
2019-03-31T05:30:32.971Z,0
2019-03-31T05:31:33.531Z,0
2019-03-31T05:32:34.099Z,0
2019-03-31T05:33:34.668Z,0
2019-03-31T05:34:35.236Z,0
2019-03-31T05:35:35.803Z,0
2019-03-31T05:36:36.371Z,0
2019-03-31T05:37:50.336Z,0
2019-03-31T05:38:38.502Z,0
2019-03-31T05:39:39.069Z,0
2019-03-31T05:40:39.638Z,0
2019-03-31T05:41:40.205Z,0
2019-03-31T05:42:40.772Z,0
2019-03-31T05:43:41.340Z,0
2019-03-31T05:44:41.908Z,0
2019-03-31T05:45:42.489Z,0
2019-03-31T05:46:43.070Z,0
2019-03-31T05:47:43.643Z,0
2019-03-31T05:48:44.211Z,0
2019-03-31T05:49:44.790Z,0
2019-03-31T05:50:45.358Z,0
2019-03-31T05:51:45.937Z,0
2019-03-31T05:52:46.504Z,0
2019-03-31T05:53:47.073Z,0
2019-03-31T05:54:47.643Z,0
2019-03-31T05:55:48.224Z,0
2019-03-31T05:56:48.792Z,0
2019-03-31T05:57:49.372Z,0
2019-03-31T05:58:49.943Z,0
2019-03-31T05:59:50.509Z,0
2019-03-31T06:00:51.090Z,0
2019-03-31T06:01:51.658Z,0
2019-03-31T06:02:52.227Z,0
2019-03-31T06:03:52.794Z,0
2019-03-31T06:04:53.361Z,0
2019-03-31T06:05:53.929Z,0
2019-03-31T06:06:54.497Z,0
2019-03-31T06:07:55.065Z,0
2019-03-31T06:08:55.633Z,0
2019-03-31T06:09:56.203Z,0
2019-03-31T06:10:56.772Z,0
2019-03-31T06:11:57.343Z,0
2019-03-31T06:12:57.908Z,0
2019-03-31T06:13:58.479Z,0
2019-03-31T06:14:59.047Z,0
2019-03-31T06:15:59.619Z,0
2019-03-31T06:17:00.184Z,0
2019-03-31T06:18:00.755Z,0
2019-03-31T06:19:01.323Z,0
2019-03-31T06:20:01.887Z,0
2019-03-31T06:21:02.456Z,0
2019-03-31T06:22:03.024Z,0
2019-03-31T06:23:03.596Z,0
2019-03-31T06:24:04.162Z,0
2019-03-31T06:25:04.733Z,5
2019-03-31T06:26:05.305Z,5
2019-03-31T06:27:05.883Z,5
2019-03-31T06:28:06.457Z,5
2019-03-31T06:29:07.024Z,5
2019-03-31T06:30:07.606Z,5
2019-03-31T06:31:08.175Z,5
2019-03-31T06:32:08.751Z,5
2019-03-31T06:33:09.329Z,5
2019-03-31T06:34:09.897Z,5
2019-03-31T06:35:10.466Z,5
2019-03-31T06:36:11.035Z,10
2019-03-31T06:37:11.604Z,10
2019-03-31T06:38:12.176Z,10
2019-03-31T06:39:12.750Z,10
2019-03-31T06:40:13.319Z,10
2019-03-31T06:41:13.889Z,10
2019-03-31T06:42:14.458Z,10
2019-03-31T06:43:15.030Z,10
2019-03-31T06:44:15.602Z,10
2019-03-31T06:45:16.172Z,10
2019-03-31T06:46:16.743Z,10
2019-03-31T06:47:17.315Z,10
2019-03-31T06:48:17.884Z,10
2019-03-31T06:49:18.457Z,10
2019-03-31T06:50:19.027Z,10
2019-03-31T06:51:19.598Z,10
2019-03-31T06:52:20.167Z,10
2019-03-31T06:53:20.753Z,5
2019-03-31T06:54:21.321Z,10
2019-03-31T06:55:21.890Z,10
2019-03-31T06:56:22.461Z,10
2019-03-31T06:57:23.046Z,10
2019-03-31T06:58:23.617Z,10
2019-03-31T06:59:24.187Z,15
2019-03-31T07:00:24.761Z,10
2019-03-31T07:01:25.329Z,15
2019-03-31T07:02:25.900Z,10
2019-03-31T07:03:26.470Z,10
2019-03-31T07:04:27.042Z,15
2019-03-31T07:05:27.614Z,15
2019-03-31T07:06:28.197Z,15
2019-03-31T07:07:28.768Z,15
2019-03-31T07:08:29.353Z,15
2019-03-31T07:09:29.929Z,15
2019-03-31T07:10:30.495Z,15
2019-03-31T07:11:31.066Z,15
2019-03-31T07:12:31.635Z,15
2019-03-31T07:13:32.220Z,15
2019-03-31T07:14:32.791Z,15
2019-03-31T07:15:33.362Z,10
2019-03-31T07:16:33.932Z,10
2019-03-31T07:17:34.503Z,10
2019-03-31T07:18:35.074Z,10
2019-03-31T07:19:35.647Z,10
2019-03-31T07:20:36.216Z,10
2019-03-31T07:21:36.787Z,10
2019-03-31T07:22:37.363Z,10
2019-03-31T07:23:37.930Z,10
2019-03-31T07:24:38.500Z,10
2019-03-31T07:25:39.073Z,10
2019-03-31T07:26:39.646Z,10
2019-03-31T07:27:40.217Z,10
2019-03-31T07:28:40.788Z,10
2019-03-31T07:29:41.370Z,10
2019-03-31T07:30:41.941Z,10
2019-03-31T07:31:42.511Z,10
2019-03-31T07:32:43.082Z,10
2019-03-31T07:33:43.654Z,10
2019-03-31T07:34:44.239Z,10
2019-03-31T07:35:44.811Z,10
2019-03-31T07:36:45.383Z,10
2019-03-31T07:37:47.628Z,10
2019-03-31T07:38:46.544Z,10
2019-03-31T07:39:47.392Z,10
2019-03-31T07:40:48.332Z,15
2019-03-31T07:41:49.043Z,15
2019-03-31T07:42:51.077Z,15
2019-03-31T07:43:50.999Z,15
2019-03-31T07:44:51.582Z,15
2019-03-31T07:45:55.629Z,15
2019-03-31T07:46:53.717Z,15
2019-03-31T07:47:54.299Z,15
2019-03-31T07:48:54.874Z,15
2019-03-31T07:49:55.443Z,15
2019-03-31T07:50:56.014Z,15
2019-03-31T07:51:56.585Z,15
2019-03-31T07:52:57.156Z,15
2019-03-31T07:53:57.728Z,15
2019-03-31T07:54:58.312Z,10
2019-03-31T07:55:58.883Z,10
2019-03-31T07:56:59.457Z,10
2019-03-31T07:58:00.028Z,10
2019-03-31T07:59:00.643Z,10
2019-03-31T08:00:01.225Z,10
2019-03-31T08:01:01.740Z,10
2019-03-31T08:02:02.313Z,10
2019-03-31T08:03:02.884Z,10
2019-03-31T08:04:03.459Z,10
2019-03-31T08:05:04.026Z,10
2019-03-31T08:06:04.599Z,10
2019-03-31T08:07:05.170Z,10
2019-03-31T08:08:05.743Z,10
2019-03-31T08:09:06.314Z,10
2019-03-31T08:10:06.883Z,10
2019-03-31T08:11:07.455Z,10
2019-03-31T08:12:08.040Z,10
2019-03-31T08:13:08.607Z,10
2019-03-31T08:14:09.179Z,10
2019-03-31T08:15:09.750Z,10
2019-03-31T08:16:10.335Z,10
2019-03-31T08:17:10.906Z,10
2019-03-31T08:18:11.479Z,10
2019-03-31T08:19:12.053Z,10
2019-03-31T08:20:12.621Z,10
2019-03-31T08:21:13.205Z,10
2019-03-31T08:22:13.775Z,10
2019-03-31T08:23:14.346Z,10
2019-03-31T08:24:14.917Z,10
2019-03-31T08:25:15.489Z,5
2019-03-31T08:26:16.062Z,5
2019-03-31T08:27:16.634Z,5
2019-03-31T08:28:17.213Z,5
2019-03-31T08:29:17.784Z,5
2019-03-31T08:30:18.357Z,10
2019-03-31T08:31:18.926Z,10
2019-03-31T08:32:19.509Z,10
2019-03-31T08:33:20.079Z,10
2019-03-31T08:34:20.665Z,10
2019-03-31T08:35:21.246Z,10
2019-03-31T08:36:21.828Z,15
2019-03-31T08:37:22.397Z,15
2019-03-31T08:38:24.558Z,15
2019-03-31T08:39:24.535Z,15
2019-03-31T08:40:25.107Z,15
2019-03-31T08:41:25.679Z,15
2019-03-31T08:42:26.251Z,15
2019-03-31T08:43:26.822Z,15
2019-03-31T08:44:27.393Z,15
2019-03-31T08:45:30.359Z,15
2019-03-31T08:46:29.534Z,15
2019-03-31T08:47:30.104Z,15
2019-03-31T08:48:30.675Z,15
2019-03-31T08:49:31.246Z,15
2019-03-31T08:50:34.699Z,20
2019-03-31T08:51:33.397Z,20
2019-03-31T08:52:33.977Z,20
2019-03-31T08:53:34.549Z,20
2019-03-31T08:54:35.120Z,20
2019-03-31T08:55:35.702Z,20
2019-03-31T08:56:36.273Z,20
2019-03-31T08:57:36.844Z,20
2019-03-31T08:58:37.417Z,20
2019-03-31T08:59:37.989Z,20
2019-03-31T09:00:38.574Z,15
2019-03-31T09:01:39.144Z,15
2019-03-31T09:02:39.720Z,15
2019-03-31T09:03:40.298Z,15
2019-03-31T09:04:40.871Z,15
2019-03-31T09:05:41.440Z,15
2019-03-31T09:06:42.011Z,15
2019-03-31T09:07:42.584Z,15
2019-03-31T09:08:43.155Z,15
2019-03-31T09:09:43.726Z,15
2019-03-31T09:10:44.297Z,15
2019-03-31T09:11:44.880Z,15
2019-03-31T09:12:48.302Z,15
2019-03-31T09:13:46.031Z,15
2019-03-31T09:14:46.602Z,15
2019-03-31T09:15:47.175Z,15
2019-03-31T09:16:47.746Z,15
2019-03-31T09:17:48.316Z,15
2019-03-31T09:18:48.890Z,15
2019-03-31T09:19:49.466Z,15
2019-03-31T09:20:50.034Z,15
2019-03-31T09:21:50.605Z,15
2019-03-31T09:22:51.175Z,20
2019-03-31T09:23:51.747Z,20
2019-03-31T09:24:52.320Z,20
2019-03-31T09:25:52.908Z,20
2019-03-31T09:26:53.477Z,20
2019-03-31T09:27:54.048Z,20
2019-03-31T09:28:54.621Z,15
2019-03-31T09:29:55.192Z,15
2019-03-31T09:30:55.777Z,20
2019-03-31T09:31:56.337Z,20
2019-03-31T09:32:56.920Z,15
2019-03-31T09:33:57.493Z,15
2019-03-31T09:34:58.066Z,15
2019-03-31T09:35:58.640Z,20
2019-03-31T09:36:59.210Z,20
2019-03-31T09:37:59.793Z,20
2019-03-31T09:39:00.364Z,20
2019-03-31T09:40:00.936Z,15
2019-03-31T09:41:01.511Z,15
2019-03-31T09:42:02.079Z,15
2019-03-31T09:43:02.652Z,15
2019-03-31T09:44:03.239Z,15
2019-03-31T09:45:03.820Z,15
2019-03-31T09:46:04.393Z,15
2019-03-31T09:47:04.976Z,15
2019-03-31T09:48:05.547Z,15
2019-03-31T09:49:06.119Z,15
2019-03-31T09:50:06.691Z,15
2019-03-31T09:51:07.262Z,15
2019-03-31T09:52:07.845Z,15
2019-03-31T09:53:08.417Z,15
2019-03-31T09:54:08.988Z,20
2019-03-31T09:55:09.560Z,20
2019-03-31T09:56:10.133Z,15
2019-03-31T09:57:10.706Z,15
2019-03-31T09:58:11.287Z,15
2019-03-31T09:59:11.863Z,15
2019-03-31T10:00:12.430Z,15
2019-03-31T10:01:13.003Z,15
2019-03-31T10:02:13.586Z,15
2019-03-31T10:03:14.159Z,15
2019-03-31T10:04:14.743Z,15
2019-03-31T10:05:15.313Z,15
2019-03-31T10:06:29.301Z,15
2019-03-31T10:07:17.450Z,15
2019-03-31T10:08:21.553Z,15
2019-03-31T10:09:19.601Z,15
2019-03-31T10:10:20.185Z,15
2019-03-31T10:11:20.768Z,15
2019-03-31T10:12:21.339Z,15
2019-03-31T10:13:21.924Z,15
2019-03-31T10:14:22.508Z,15
2019-03-31T10:15:23.081Z,15
2019-03-31T10:16:23.653Z,20
2019-03-31T10:17:24.223Z,20
2019-03-31T10:18:24.795Z,20
2019-03-31T10:19:25.366Z,20
2019-03-31T10:20:25.939Z,20
2019-03-31T10:21:26.510Z,20
2019-03-31T10:22:27.082Z,20
2019-03-31T10:23:27.667Z,20
2019-03-31T10:24:28.238Z,20
2019-03-31T10:25:28.811Z,20
2019-03-31T10:26:32.197Z,20
2019-03-31T10:27:30.947Z,20
2019-03-31T10:28:31.519Z,20
2019-03-31T10:29:32.091Z,20
2019-03-31T10:30:32.664Z,20
2019-03-31T10:31:33.249Z,20
2019-03-31T10:32:33.821Z,20
2019-03-31T10:33:34.391Z,20
2019-03-31T10:34:34.964Z,20
2019-03-31T10:35:35.535Z,20
2019-03-31T10:36:44.320Z,20
2019-03-31T10:37:37.673Z,20
2019-03-31T10:38:38.258Z,20
2019-03-31T10:39:38.830Z,20
2019-03-31T10:40:39.412Z,15
2019-03-31T10:41:39.985Z,20
2019-03-31T10:42:40.557Z,20
2019-03-31T10:43:41.129Z,20
2019-03-31T10:44:41.712Z,20
2019-03-31T10:45:42.284Z,20
2019-03-31T10:46:42.855Z,20
2019-03-31T10:47:43.439Z,20
2019-03-31T10:48:44.010Z,20
2019-03-31T10:49:44.581Z,15
2019-03-31T10:50:45.155Z,15
2019-03-31T10:51:45.727Z,15
2019-03-31T10:52:46.301Z,15
2019-03-31T10:53:46.871Z,15
2019-03-31T10:54:47.454Z,15
2019-03-31T10:55:48.026Z,15
2019-03-31T10:56:48.598Z,15
2019-03-31T10:57:49.170Z,15
2019-03-31T10:58:49.794Z,15
2019-03-31T10:59:50.365Z,15
2019-03-31T11:00:50.936Z,15
2019-03-31T11:01:51.511Z,20
2019-03-31T11:02:52.081Z,20
2019-03-31T11:03:52.655Z,20
2019-03-31T11:04:53.229Z,20
2019-03-31T11:05:53.819Z,20
2019-03-31T11:06:59.136Z,20
2019-03-31T11:07:55.952Z,20
2019-03-31T11:08:56.537Z,20
2019-03-31T11:09:57.109Z,20
2019-03-31T11:10:57.685Z,35
2019-03-31T11:11:58.253Z,30
2019-03-31T11:12:58.824Z,30
2019-03-31T11:13:59.399Z,25
2019-03-31T11:14:59.971Z,25
2019-03-31T11:16:00.546Z,25
2019-03-31T11:17:01.116Z,25
2019-03-31T11:18:01.700Z,30
2019-03-31T11:19:02.284Z,25
2019-03-31T11:20:02.857Z,20
2019-03-31T11:21:03.430Z,20
2019-03-31T11:22:04.003Z,20
2019-03-31T11:23:04.573Z,20
2019-03-31T11:24:05.146Z,20
2019-03-31T11:25:19.997Z,20
2019-03-31T11:26:07.286Z,20
2019-03-31T11:27:07.859Z,20
2019-03-31T11:28:08.433Z,20
2019-03-31T11:29:09.054Z,20
2019-03-31T11:30:09.639Z,20
2019-03-31T11:31:10.219Z,20
2019-03-31T11:32:10.786Z,20
2019-03-31T11:33:11.357Z,25
2019-03-31T11:34:11.930Z,25
2019-03-31T11:35:12.505Z,25
2019-03-31T11:36:13.102Z,25
2019-03-31T11:37:14.047Z,25
2019-03-31T11:38:14.685Z,25
2019-03-31T11:39:16.441Z,25
2019-03-31T11:40:16.827Z,25
2019-03-31T11:41:17.400Z,20
2019-03-31T11:42:17.972Z,20
2019-03-31T11:43:18.545Z,20
2019-03-31T11:44:19.114Z,20
2019-03-31T11:45:19.689Z,20
2019-03-31T11:46:20.262Z,20
2019-03-31T11:47:20.836Z,20
2019-03-31T11:48:21.411Z,20
2019-03-31T11:49:21.978Z,25
2019-03-31T11:50:22.552Z,25
2019-03-31T11:51:23.136Z,25
2019-03-31T11:52:23.708Z,25
2019-03-31T11:53:24.282Z,25
2019-03-31T11:54:24.855Z,25
2019-03-31T11:55:25.447Z,25
2019-03-31T11:56:26.024Z,25
2019-03-31T11:57:26.596Z,25
2019-03-31T11:58:27.169Z,25
2019-03-31T11:59:27.744Z,25
2019-03-31T12:00:28.318Z,25
2019-03-31T12:01:28.890Z,25
2019-03-31T12:02:29.461Z,25
2019-03-31T12:03:31.135Z,25
2019-03-31T12:04:31.600Z,25
2019-03-31T12:05:32.173Z,20
2019-03-31T12:06:32.750Z,20
2019-03-31T12:07:46.091Z,20
2019-03-31T12:08:34.897Z,20
2019-03-31T12:09:35.470Z,20
2019-03-31T12:10:36.044Z,20
2019-03-31T12:11:36.621Z,20
2019-03-31T12:12:37.191Z,20
2019-03-31T12:13:37.764Z,20
2019-03-31T12:14:38.349Z,20
2019-03-31T12:15:38.921Z,20
2019-03-31T12:16:39.493Z,15
2019-03-31T12:17:40.066Z,20
2019-03-31T12:18:40.639Z,20
2019-03-31T12:19:41.224Z,20
2019-03-31T12:20:41.804Z,20
2019-03-31T12:21:42.370Z,20
2019-03-31T12:22:42.944Z,20
2019-03-31T12:23:43.518Z,20
2019-03-31T12:24:44.138Z,20
2019-03-31T12:25:44.713Z,20
2019-03-31T12:26:45.286Z,20
2019-03-31T12:27:45.871Z,25
2019-03-31T12:28:46.445Z,25
2019-03-31T12:29:47.017Z,25
2019-03-31T12:30:47.589Z,25
2019-03-31T12:31:48.162Z,25
2019-03-31T12:32:48.748Z,25
2019-03-31T12:33:49.320Z,20
2019-03-31T12:34:50.045Z,20
2019-03-31T12:35:50.641Z,20
2019-03-31T12:36:51.213Z,20
2019-03-31T12:37:51.784Z,20
2019-03-31T12:38:54.040Z,20
2019-03-31T12:39:52.938Z,20
2019-03-31T12:40:53.510Z,20
2019-03-31T12:41:54.083Z,20
2019-03-31T12:42:54.655Z,20
2019-03-31T12:43:55.228Z,25
2019-03-31T12:44:55.815Z,25
2019-03-31T12:45:56.400Z,25
2019-03-31T12:46:56.974Z,30
2019-03-31T12:48:00.872Z,30
2019-03-31T12:48:59.126Z,30
2019-03-31T12:49:59.761Z,30
2019-03-31T12:51:00.344Z,30
2019-03-31T12:52:00.908Z,30
2019-03-31T12:53:01.493Z,30
2019-03-31T12:54:02.069Z,30
2019-03-31T12:55:02.736Z,30
2019-03-31T12:56:03.312Z,30
2019-03-31T12:57:03.881Z,30
2019-03-31T12:58:04.454Z,30
2019-03-31T12:59:05.031Z,40
2019-03-31T13:00:05.620Z,30
2019-03-31T13:01:06.189Z,35
2019-03-31T13:02:06.763Z,35
2019-03-31T13:03:07.340Z,30
2019-03-31T13:04:07.921Z,30
2019-03-31T13:05:08.494Z,30
2019-03-31T13:06:09.068Z,30
2019-03-31T13:07:09.650Z,25
2019-03-31T13:08:10.213Z,25
2019-03-31T13:09:10.790Z,25
2019-03-31T13:10:11.361Z,25
2019-03-31T13:11:11.936Z,25
2019-03-31T13:12:12.544Z,25
2019-03-31T13:13:13.094Z,25
2019-03-31T13:14:13.667Z,30
2019-03-31T13:15:14.239Z,35
2019-03-31T13:16:14.811Z,35
2019-03-31T13:17:15.388Z,35
2019-03-31T13:18:15.964Z,40
2019-03-31T13:19:16.539Z,45
2019-03-31T13:20:17.109Z,35
2019-03-31T13:21:17.683Z,40
2019-03-31T13:22:18.256Z,35
2019-03-31T13:23:18.844Z,35
2019-03-31T13:24:19.415Z,30
2019-03-31T13:25:19.990Z,35
2019-03-31T13:26:20.564Z,45
2019-03-31T13:27:21.138Z,30
2019-03-31T13:28:21.715Z,25
2019-03-31T13:29:22.287Z,20
2019-03-31T13:30:22.864Z,20
2019-03-31T13:31:23.435Z,25
2019-03-31T13:32:24.008Z,25
2019-03-31T13:33:24.581Z,25
2019-03-31T13:34:25.155Z,25
2019-03-31T13:35:25.730Z,25
2019-03-31T13:36:26.314Z,20
2019-03-31T13:37:26.887Z,20
2019-03-31T13:38:27.462Z,20
2019-03-31T13:39:28.037Z,20
2019-03-31T13:40:28.622Z,20
2019-03-31T13:41:29.207Z,20
2019-03-31T13:42:29.795Z,20
2019-03-31T13:43:30.366Z,20
2019-03-31T13:44:30.938Z,20
2019-03-31T13:45:31.513Z,20
2019-03-31T13:46:32.099Z,20
2019-03-31T13:47:32.672Z,25
2019-03-31T13:48:33.247Z,20
2019-03-31T13:49:33.833Z,20
2019-03-31T13:50:34.410Z,25
2019-03-31T13:51:34.990Z,25
2019-03-31T13:52:35.552Z,25
2019-03-31T13:53:36.125Z,25
2019-03-31T13:54:36.699Z,25
2019-03-31T13:55:37.272Z,30
2019-03-31T13:56:38.000Z,30
2019-03-31T13:57:40.101Z,35
2019-03-31T13:58:41.454Z,35
2019-03-31T13:59:41.174Z,35
2019-03-31T14:00:41.826Z,35
2019-03-31T14:01:42.329Z,45
2019-03-31T14:02:42.914Z,45
2019-03-31T14:03:43.489Z,35
2019-03-31T14:04:51.562Z,30
2019-03-31T14:05:45.632Z,30
2019-03-31T14:06:46.205Z,30
2019-03-31T14:07:46.782Z,25
2019-03-31T14:08:47.362Z,25
2019-03-31T14:09:47.985Z,25
2019-03-31T14:10:48.609Z,25
2019-03-31T14:11:49.187Z,25
2019-03-31T14:12:49.760Z,25
2019-03-31T14:13:50.334Z,25
2019-03-31T14:14:50.910Z,25
2019-03-31T14:15:51.481Z,25
2019-03-31T14:16:52.057Z,35
2019-03-31T14:17:52.632Z,30
2019-03-31T14:18:53.205Z,35
2019-03-31T14:19:53.780Z,35
2019-03-31T14:20:57.379Z,40
2019-03-31T14:21:57.953Z,40
2019-03-31T14:22:58.552Z,45
2019-03-31T14:23:59.203Z,45
2019-03-31T14:24:59.778Z,40
2019-03-31T14:26:00.353Z,30
2019-03-31T14:27:00.926Z,25
2019-03-31T14:28:01.500Z,25
2019-03-31T14:29:02.072Z,30
2019-03-31T14:30:02.646Z,25
2019-03-31T14:31:03.320Z,25
2019-03-31T14:32:03.896Z,25
2019-03-31T14:33:04.474Z,25
2019-03-31T14:34:05.047Z,25
2019-03-31T14:35:05.618Z,25
2019-03-31T14:36:06.191Z,25
2019-03-31T14:37:06.778Z,25
2019-03-31T14:38:07.351Z,25